createdAt,value
2023-02-12T00:00:59.987Z,24.50
2023-02-12T00:05:54.474Z,27.63
2023-02-12T00:10:47.480Z,33.07
2023-02-12T00:15:40.511Z,29.60
2023-02-12T00:20:33.296Z,27.10
2023-02-12T00:25:27.439Z,27.37
2023-02-12T00:30:20.604Z,30.03
2023-02-12T00:35:13.866Z,30.83
2023-02-12T00:40:07.332Z,51.40
2023-02-12T00:45:01.638Z,63.97
2023-02-12T00:49:57.257Z,70.60
2023-02-12T00:54:50.365Z,64.97
2023-02-12T00:59:43.360Z,64.90
2023-02-12T01:04:37.708Z,60.50
2023-02-12T01:09:30.638Z,62.20
2023-02-12T01:14:23.732Z,58.30
2023-02-12T01:19:16.731Z,57.93
2023-02-12T01:24:11.554Z,66.60
2023-02-12T01:29:06.605Z,59.47
2023-02-12T01:34:00.506Z,67.70
2023-02-12T01:38:53.565Z,67.47
2023-02-12T01:43:47.611Z,64.10
2023-02-12T01:48:41.681Z,67.07
2023-02-12T01:53:36.010Z,62.23
2023-02-12T01:58:31.234Z,62.53
2023-02-12T02:03:25.237Z,52.30
2023-02-12T02:08:19.163Z,52.43
2023-02-12T02:13:29.572Z,46.87
2023-02-12T02:18:24.100Z,38.37
2023-02-12T02:23:30.991Z,48.23
2023-02-12T02:28:32.735Z,52.73
2023-02-12T02:33:33.645Z,49.57
2023-02-12T02:38:30.650Z,53.67
2023-02-12T02:43:24.913Z,50.57
2023-02-12T02:48:19.078Z,54.20
2023-02-12T02:53:15.339Z,56.07
2023-02-12T02:58:11.296Z,43.50
2023-02-12T03:03:08.712Z,33.93
2023-02-12T03:08:04.142Z,24.50
2023-02-12T03:13:00.589Z,19.00
2023-02-12T03:17:53.254Z,20.93
2023-02-12T03:22:48.169Z,21.03
2023-02-12T03:27:42.500Z,17.40
2023-02-12T03:32:41.568Z,18.03
2023-02-12T03:37:36.300Z,27.83
2023-02-12T03:42:33.891Z,37.37
2023-02-12T03:47:28.910Z,45.03
2023-02-12T03:52:22.981Z,50.10
2023-02-12T03:57:18.312Z,47.13
2023-02-12T04:02:11.214Z,50.03
2023-02-12T04:07:03.899Z,47.50
2023-02-12T04:12:04.813Z,47.60
2023-02-12T04:17:01.161Z,45.40
2023-02-12T04:22:02.811Z,44.43
2023-02-12T04:26:56.272Z,47.07
2023-02-12T04:31:52.082Z,43.10
2023-02-12T04:36:47.148Z,47.17
2023-02-12T04:41:40.403Z,44.63
2023-02-12T04:46:33.126Z,43.83
2023-02-12T04:51:27.069Z,45.20
2023-02-12T04:56:19.646Z,47.33
2023-02-12T05:01:12.250Z,43.00
2023-02-12T05:06:05.347Z,45.13
2023-02-12T05:10:59.230Z,45.50
2023-02-12T05:15:51.897Z,49.33
2023-02-12T05:20:44.467Z,46.00
2023-02-12T05:25:37.071Z,41.07
2023-02-12T05:30:30.961Z,46.20
2023-02-12T05:35:24.301Z,39.30
2023-02-12T05:40:17.110Z,48.80
2023-02-12T05:45:09.883Z,44.00
2023-02-12T05:50:03.750Z,44.07
2023-02-12T05:54:56.290Z,47.10
2023-02-12T05:59:48.850Z,49.93
2023-02-12T06:04:41.427Z,44.23
2023-02-12T06:09:35.931Z,43.40
2023-02-12T06:14:31.468Z,41.97
2023-02-12T06:19:24.761Z,39.57
2023-02-12T06:24:17.895Z,43.30
2023-02-12T06:29:13.164Z,42.17
2023-02-12T06:34:07.089Z,47.37
2023-02-12T06:39:01.330Z,46.33
2023-02-12T06:43:53.868Z,44.63
2023-02-12T06:48:47.771Z,47.00
2023-02-12T06:53:40.366Z,43.63
2023-02-12T06:58:33.016Z,50.00
2023-02-12T07:03:25.622Z,52.23
2023-02-12T07:08:19.549Z,59.30
2023-02-12T07:13:12.123Z,62.67
2023-02-12T07:18:04.782Z,58.87
2023-02-12T07:22:57.297Z,58.90
2023-02-12T07:27:51.244Z,43.70
2023-02-12T07:32:43.795Z,44.80
2023-02-12T07:37:36.400Z,39.93
2023-02-12T07:42:29.255Z,37.57
2023-02-12T07:47:23.534Z,32.67
2023-02-12T07:52:16.290Z,31.23
2023-02-12T07:57:08.930Z,38.70
2023-02-12T08:02:01.957Z,33.13
2023-02-12T08:06:56.742Z,35.17
2023-02-12T08:11:49.735Z,43.30
2023-02-12T08:16:43.470Z,54.93
2023-02-12T08:21:42.728Z,45.43
2023-02-12T08:26:38.031Z,42.67
2023-02-12T08:31:38.431Z,45.43
2023-02-12T08:36:42.380Z,41.30
2023-02-12T08:41:49.388Z,42.37
2023-02-12T08:46:47.319Z,37.63
2023-02-12T08:51:43.708Z,40.57
2023-02-12T08:56:36.671Z,37.53
2023-02-12T09:01:31.867Z,39.40
2023-02-12T09:06:25.671Z,35.40
2023-02-12T09:11:19.241Z,34.60
2023-02-12T09:16:12.390Z,35.63
2023-02-12T09:21:07.312Z,35.80
2023-02-12T09:26:00.238Z,34.73
2023-02-12T09:30:52.863Z,33.70
2023-02-12T09:35:45.488Z,36.30
2023-02-12T09:40:43.882Z,32.70
2023-02-12T09:45:37.612Z,27.27
2023-02-12T09:50:38.435Z,30.93
2023-02-12T09:55:32.011Z,31.10
2023-02-12T10:00:31.083Z,30.27
2023-02-12T10:05:26.423Z,40.40
2023-02-12T10:10:26.045Z,34.57
2023-02-12T10:15:28.030Z,26.97
2023-02-12T10:20:35.484Z,28.30
2023-02-12T10:25:31.428Z,22.73
2023-02-12T10:30:26.115Z,21.70
2023-02-12T10:35:20.105Z,23.37
2023-02-12T10:40:18.046Z,21.80
2023-02-12T10:45:16.609Z,19.77
2023-02-12T10:50:16.171Z,19.63
2023-02-12T10:55:24.706Z,19.97
2023-02-12T11:00:23.904Z,17.43
2023-02-12T11:05:24.012Z,16.80
2023-02-12T11:10:21.604Z,18.93
2023-02-12T11:15:16.623Z,16.90
2023-02-12T11:20:22.449Z,15.83
2023-02-12T11:25:16.724Z,15.70
2023-02-12T11:30:14.327Z,15.63
2023-02-12T11:35:07.757Z,13.13
2023-02-12T11:40:01.864Z,12.93
2023-02-12T11:44:56.295Z,11.10
2023-02-12T11:49:50.630Z,12.80
2023-02-12T11:54:47.221Z,13.00
2023-02-12T11:59:43.899Z,16.70
2023-02-12T12:04:36.884Z,12.53
2023-02-12T12:09:34.793Z,13.90
2023-02-12T12:14:29.728Z,10.13
2023-02-12T12:19:43.493Z,8.57
2023-02-12T12:24:39.865Z,9.77
2023-02-12T12:29:47.635Z,9.47
2023-02-12T12:34:41.700Z,10.37
2023-02-12T12:39:36.698Z,12.67
2023-02-12T12:44:34.224Z,11.53
2023-02-12T12:49:32.057Z,10.77
2023-02-12T12:54:34.600Z,9.70
2023-02-12T12:59:34.505Z,7.97
2023-02-12T13:04:45.868Z,9.63
2023-02-12T13:09:46.571Z,6.90
2023-02-12T13:14:43.006Z,6.10
2023-02-12T13:19:40.454Z,6.73
2023-02-12T13:24:39.878Z,6.67
2023-02-12T13:29:36.178Z,6.80
2023-02-12T13:34:30.620Z,7.17
2023-02-12T13:39:28.712Z,7.57
2023-02-12T13:44:28.070Z,7.80
2023-02-12T13:49:27.146Z,7.50
2023-02-12T13:54:30.817Z,8.00
2023-02-12T13:59:39.475Z,7.33
2023-02-12T14:04:34.748Z,6.70
2023-02-12T14:09:32.244Z,7.80
2023-02-12T14:14:27.205Z,8.67
2023-02-12T14:19:40.408Z,9.80
2023-02-12T14:24:52.878Z,10.90
2023-02-12T14:30:00.314Z,11.00
2023-02-12T14:34:54.301Z,13.80
2023-02-12T14:39:46.872Z,11.40
2023-02-12T14:44:40.057Z,13.30
2023-02-12T14:49:35.186Z,13.07
2023-02-12T14:54:32.126Z,11.97
2023-02-12T14:59:25.894Z,13.07
2023-02-12T15:04:22.536Z,14.57
2023-02-12T15:09:18.059Z,11.77
2023-02-12T15:14:16.347Z,12.43
2023-02-12T15:19:15.368Z,14.50
2023-02-12T15:24:08.981Z,15.53
2023-02-12T15:29:01.940Z,17.00
2023-02-12T15:33:56.661Z,15.90
2023-02-12T15:38:52.332Z,21.13
2023-02-12T15:43:45.053Z,17.10
2023-02-12T15:48:38.775Z,19.70
2023-02-12T15:53:33.540Z,20.10
2023-02-12T15:58:28.075Z,22.70
2023-02-12T16:03:22.187Z,18.40
2023-02-12T16:08:16.376Z,18.00
2023-02-12T16:13:12.471Z,20.00
2023-02-12T16:18:05.788Z,23.00
2023-02-12T16:22:59.286Z,19.33
2023-02-12T16:27:55.167Z,27.67
2023-02-12T16:32:49.240Z,20.60
2023-02-12T16:37:44.002Z,37.50
2023-02-12T16:42:36.713Z,39.47
2023-02-12T16:47:29.301Z,34.37
2023-02-12T16:52:29.325Z,32.70
2023-02-12T16:57:21.981Z,31.90
2023-02-12T17:02:15.547Z,41.97
2023-02-12T17:07:16.667Z,50.53
2023-02-12T17:12:10.788Z,24.10
2023-02-12T17:17:03.428Z,23.80
2023-02-12T17:21:56.243Z,21.40
2023-02-12T17:26:50.505Z,20.13
2023-02-12T17:31:44.792Z,26.97
2023-02-12T17:36:39.214Z,30.40
2023-02-12T17:41:33.020Z,32.30
2023-02-12T17:46:28.633Z,31.27
2023-02-12T17:51:23.577Z,31.47
2023-02-12T17:56:20.985Z,20.97
2023-02-12T18:01:19.358Z,17.83
2023-02-12T18:06:26.658Z,16.00
2023-02-12T18:11:24.377Z,14.43
2023-02-12T18:16:18.099Z,14.77
2023-02-12T18:21:13.904Z,14.30
2023-02-12T18:26:09.468Z,17.97
2023-02-12T18:31:04.722Z,16.83
2023-02-12T18:35:58.233Z,16.20
2023-02-12T18:40:50.805Z,18.27
2023-02-12T18:45:43.441Z,24.13
2023-02-12T18:50:37.635Z,104.97
2023-02-12T18:55:30.201Z,21.30
2023-02-12T19:00:23.027Z,22.17
2023-02-12T19:05:15.591Z,20.50
2023-02-12T19:10:10.210Z,24.43
2023-02-12T19:15:02.947Z,20.60
2023-02-12T19:19:55.591Z,23.07
2023-02-12T19:24:50.567Z,21.23
2023-02-12T19:29:44.608Z,34.17
2023-02-12T19:34:37.232Z,38.97
2023-02-12T19:39:30.037Z,27.90
2023-02-12T19:44:23.787Z,27.57
2023-02-12T19:49:18.636Z,27.00
2023-02-12T19:54:12.639Z,29.50
2023-02-12T19:59:06.338Z,34.17
2023-02-12T20:03:59.544Z,25.10
2023-02-12T20:08:53.562Z,25.20
2023-02-12T20:13:46.192Z,27.30
2023-02-12T20:18:39.007Z,26.37
2023-02-12T20:23:31.629Z,28.80
2023-02-12T20:28:25.588Z,25.37
2023-02-12T20:33:18.268Z,30.23
2023-02-12T20:38:10.917Z,30.20
2023-02-12T20:43:03.571Z,25.47
2023-02-12T20:47:57.655Z,26.70
2023-02-12T20:52:50.262Z,25.33
2023-02-12T20:57:42.882Z,26.63
2023-02-12T21:02:35.574Z,25.33
2023-02-12T21:07:29.535Z,24.67
2023-02-12T21:12:22.200Z,23.87
2023-02-12T21:17:14.815Z,21.63
2023-02-12T21:22:07.402Z,18.93
2023-02-12T21:27:01.463Z,18.13
2023-02-12T21:31:55.049Z,25.03
2023-02-12T21:36:48.681Z,30.17
2023-02-12T21:41:42.349Z,33.77
2023-02-12T21:46:36.892Z,35.40
2023-02-12T21:51:32.662Z,34.03
2023-02-12T21:56:26.950Z,32.10
2023-02-12T22:01:20.669Z,38.30
2023-02-12T22:06:15.445Z,32.50
2023-02-12T22:11:09.039Z,31.50
2023-02-12T22:16:08.186Z,33.50
2023-02-12T22:21:01.205Z,31.77
2023-02-12T22:25:55.216Z,36.70
2023-02-12T22:30:47.744Z,30.57
2023-02-12T22:35:40.376Z,27.77
2023-02-12T22:40:33.012Z,31.20
2023-02-12T22:45:26.915Z,30.37
2023-02-12T22:50:19.700Z,28.93
2023-02-12T22:55:13.087Z,28.43
2023-02-12T23:00:06.573Z,24.43
2023-02-12T23:05:00.535Z,38.63
2023-02-12T23:09:53.062Z,23.30
2023-02-12T23:14:45.645Z,22.20
2023-02-12T23:19:38.249Z,24.97
2023-02-12T23:24:32.216Z,25.27
2023-02-12T23:29:24.893Z,25.40
2023-02-12T23:34:17.684Z,22.67
2023-02-12T23:39:12.310Z,21.50
2023-02-12T23:44:06.529Z,18.13
2023-02-12T23:48:59.224Z,20.07
2023-02-12T23:53:51.837Z,20.50
2023-02-12T23:58:44.474Z,19.90
